Time;durP1;ratioP1;P1;durP2;ratioP2;P2;SDS_P1;SDS_P2;PMS_P1;PMS_P2;Temp;Humidity;BMP_temperature;BMP_pressure;BME280_temperature;BME280_humidity;BME280_pressure;Samples;Min_cycle;Max_cycle;Signal;HPM_P1;HPM_P2
2023/10/05 00:03:49;;;;;;;21.45;11.77;;;;;;;13.99;68.98;98481.66;10325042;28;20071;-51
2023/10/05 00:08:52;;;;;;;20.60;10.45;;;;;;;13.98;69.07;98476.44;10325938;28;20486;-52
2023/10/05 00:14:04;;;;;;;19.10;10.93;;;;;;;13.95;69.10;98479.94;10324996;28;20140;-49
2023/10/05 00:19:12;;;;;;;19.15;10.05;;;;;;;13.96;69.60;98479.06;10325019;28;20076;-49
2023/10/05 00:24:11;;;;;;;20.70;10.83;;;;;;;13.95;69.47;98471.25;10325035;28;20060;-51
2023/10/05 00:30:14;;;;;;;16.88;10.65;;;;;;;13.87;69.88;98463.44;10324742;28;20280;-50
2023/10/05 00:34:40;;;;;;;20.17;9.77;;;;;;;13.85;69.56;98467.78;10314287;28;20073;-50
2023/10/05 00:39:46;;;;;;;21.15;11.38;;;;;;;13.83;69.67;98472.13;10324104;28;20068;-50
2023/10/05 00:44:46;;;;;;;20.52;11.40;;;;;;;13.60;69.57;98427.00;10324839;28;20073;-51
2023/10/05 00:49:54;;;;;;;18.67;11.65;;;;;;;13.80;69.83;98466.03;10323646;28;20129;-52
2023/10/05 00:54:56;;;;;;;20.27;11.48;;;;;;;13.75;69.73;98459.13;10323446;28;20084;-51
2023/10/05 01:04:57;;;;;;;;;;;;;;;13.61;70.78;98460.91;10323320;28;20095;-49
2023/10/05 01:15:01;;;;;;;17.67;9.82;;;;;;;13.42;70.93;98460.03;10326418;28;20585;-51
2023/10/05 01:20:22;;;;;;;17.60;10.82;;;;;;;12.84;74.52;98460.03;10326635;28;20481;-51
2023/10/05 01:25:21;;;;;;;19.33;10.52;;;;;;;12.87;73.73;98454.81;10326554;28;20060;-52
2023/10/05 01:30:21;;;;;;;;;;;;;;;12.99;73.31;98449.59;10327275;28;20469;-50
2023/10/05 01:35:20;;;;;;;20.95;12.15;;;;;;;12.80;72.81;98393.16;10325589;28;19953;-51
2023/10/05 01:40:23;;;;;;;24.08;12.02;;;;;;;13.12;72.64;98445.28;10326225;28;20076;-49
2023/10/05 01:45:24;;;;;;;20.27;10.55;;;;;;;13.17;72.51;98442.66;10326744;28;20075;-51
2023/10/05 01:50:23;;;;;;;16.75;10.88;;;;;;;13.22;72.81;98440.91;10334447;28;20073;-50
2023/10/05 01:55:24;;;;;;;20.60;11.13;;;;;;;13.25;72.65;98446.13;10333043;28;20056;-51
2023/10/05 02:00:23;;;;;;;21.75;11.68;;;;;;;13.28;72.48;98446.09;10333613;28;20075;-49
2023/10/05 02:05:22;;;;;;;21.48;12.55;;;;;;;13.15;72.65;98433.09;10334065;28;20084;-50
2023/10/05 02:10:21;;;;;;;20.20;12.10;;;;;;;13.22;72.46;98451.34;10332892;28;20065;-51
2023/10/05 02:15:28;;;;;;;20.67;11.32;;;;;;;12.85;73.41;98404.44;10329326;28;20030;-51
2023/10/05 02:20:38;;;;;;;17.67;10.80;;;;;;;13.05;73.76;98448.75;10329600;28;20069;-49
2023/10/05 02:25:37;;;;;;;18.55;10.98;;;;;;;12.97;73.70;98427.03;10328978;28;20472;-49
2023/10/05 02:30:36;;;;;;;18.60;11.20;;;;;;;13.12;73.85;98451.34;10328891;28;20125;-52
2023/10/05 02:35:38;;;;;;;23.90;10.65;;;;;;;13.03;74.44;98443.53;10329345;28;20030;-49
2023/10/05 02:40:46;;;;;;;20.42;11.00;;;;;;;13.01;74.16;98463.50;10326850;28;20057;-49
2023/10/05 02:45:45;;;;;;;20.20;10.98;;;;;;;12.89;74.23;98458.28;10328967;28;20088;-50
2023/10/05 02:50:46;;;;;;;17.88;10.40;;;;;;;12.89;74.14;98458.28;10328249;28;20100;-49
2023/10/05 02:55:51;;;;;;;23.85;11.20;;;;;;;12.80;74.07;98443.50;10325397;28;20073;-51
2023/10/05 03:00:51;;;;;;;23.17;12.20;;;;;;;13.02;73.58;98464.34;10327898;28;20069;-51
2023/10/05 03:05:50;;;;;;;19.58;10.88;;;;;;;13.02;73.21;98469.56;10328021;28;20588;-49
2023/10/05 03:10:49;;;;;;;21.17;11.02;;;;;;;12.97;73.11;98471.31;10327104;28;20551;-49
2023/10/05 03:15:50;;;;;;;25.52;11.75;;;;;;;12.71;73.24;98433.06;10326895;28;20445;-51
2023/10/05 03:20:49;;;;;;;20.90;11.93;;;;;;;13.01;73.17;98463.50;10327515;28;20065;-49
2023/10/05 03:25:52;;;;;;;20.48;11.23;;;;;;;13.06;73.12;98464.34;10327282;28;20761;-51
2023/10/05 03:30:53;;;;;;;26.13;13.25;;;;;;;13.12;72.77;98466.97;10326031;28;20493;-51
2023/10/05 03:35:56;;;;;;;22.50;12.50;;;;;;;13.16;73.28;98467.84;10325027;28;20489;-51
2023/10/05 03:40:59;;;;;;;25.05;13.63;;;;;;;12.89;73.54;98408.78;10325761;28;20068;-51
2023/10/05 03:46:06;;;;;;;25.52;12.80;;;;;;;13.05;73.39;98465.25;10325590;28;20080;-49
2023/10/05 03:51:15;;;;;;;19.50;11.45;;;;;;;13.06;73.15;98464.34;10326240;28;20132;-51
2023/10/05 03:56:18;;;;;;;20.73;11.48;;;;;;;12.90;73.31;98452.19;10323046;28;20072;-50
2023/10/05 04:01:18;;;;;;;22.13;12.00;;;;;;;12.92;73.24;98474.78;10326325;28;20081;-49
2023/10/05 04:06:17;;;;;;;21.67;11.63;;;;;;;12.64;73.68;98462.56;10325607;28;20096;-51
2023/10/05 04:11:17;;;;;;;25.25;11.75;;;;;;;12.62;73.89;98485.13;10325607;28;20073;-50
2023/10/05 04:16:22;;;;;;;24.65;12.70;;;;;;;12.64;73.82;98484.28;10324249;28;20086;-51
2023/10/05 04:21:24;;;;;;;21.77;12.43;;;;;;;12.68;73.87;98483.41;10323839;28;20080;-50
2023/10/05 04:26:26;;;;;;;24.85;15.23;;;;;;;12.64;74.24;98489.47;10324134;28;20065;-51
2023/10/05 04:31:25;;;;;;;31.42;16.83;;;;;;;12.57;75.20;98482.53;10324882;28;20496;-52
2023/10/05 04:36:25;;;;;;;30.45;17.27;;;;;;;12.67;75.47;98488.63;10323625;28;20551;-49
2023/10/05 04:41:28;;;;;;;30.45;17.77;;;;;;;12.75;75.33;98488.66;10323615;28;20072;-48
2023/10/05 04:46:28;;;;;;;24.45;16.77;;;;;;;12.12;75.74;98400.81;10323252;28;20112;-48
2023/10/05 04:51:30;;;;;;;28.15;16.05;;;;;;;12.69;75.53;98516.38;10323852;28;20103;-50
2023/10/05 05:06:53;;;;;;;39.42;20.75;;;;;;;12.24;75.33;98467.63;10323335;28;20345;-51
2023/10/05 05:11:52;;;;;;;33.60;19.10;;;;;;;12.64;75.23;98536.34;10324172;28;20068;-49
2023/10/05 05:16:52;;;;;;;33.90;18.92;;;;;;;12.69;74.99;98534.63;10320414;28;20026;-50
2023/10/05 05:21:51;;;;;;;48.17;23.20;;;;;;;12.68;75.08;98535.50;10325451;28;20077;-50
2023/10/05 05:26:49;;;;;;;43.97;18.92;;;;;;;12.80;74.86;98546.81;10330480;28;20037;-50
2023/10/05 05:31:50;;;;;;;32.85;17.90;;;;;;;12.83;74.55;98546.81;10329884;28;20032;-51
2023/10/05 05:36:52;;;;;;;39.50;19.80;;;;;;;12.81;74.80;98548.56;10329556;28;20516;-51
2023/10/05 05:41:59;;;;;;;38.25;18.00;;;;;;;12.92;74.48;98552.91;10329679;28;20069;-51
2023/10/05 05:46:59;;;;;;;44.97;19.23;;;;;;;12.95;73.91;98541.63;10329055;28;20144;-51
2023/10/05 05:51:59;;;;;;;30.00;17.77;;;;;;;13.03;74.16;98563.38;10329906;28;20116;-51
2023/10/05 05:56:58;;;;;;;35.58;19.20;;;;;;;13.26;74.10;98566.03;10331262;28;20129;-51
2023/10/05 06:01:57;;;;;;;44.40;20.42;;;;;;;13.28;74.04;98558.19;10330251;28;20175;-52
2023/10/05 06:06:56;;;;;;;37.30;19.35;;;;;;;13.47;73.61;98556.47;10331766;28;21079;-49
2023/10/05 06:11:55;;;;;;;;;;;;;;;13.62;73.43;98555.66;10335482;28;20703;-50
2023/10/05 06:16:54;;;;;;;31.55;19.13;;;;;;;13.83;73.08;98555.63;10333881;28;20641;-49
2023/10/05 06:21:53;;;;;;;32.85;18.58;;;;;;;13.95;72.82;98562.56;10329969;28;20042;-49
2023/10/05 06:26:52;;;;;;;28.58;17.75;;;;;;;13.85;73.18;98564.31;10330843;28;20065;-51
2023/10/05 06:31:52;;;;;;;30.25;16.10;;;;;;;13.87;72.84;98540.84;10334013;28;20084;-49
2023/10/05 06:36:52;;;;;;;29.55;16.77;;;;;;;14.27;72.42;98569.47;10334454;28;20069;-49
2023/10/05 06:41:51;;;;;;;32.53;16.40;;;;;;;14.36;72.16;98536.34;10335206;28;20556;-50
2023/10/05 06:46:50;;;;;;;;;;;;;;;14.86;71.28;98559.69;10335240;28;20487;-50
2023/10/05 06:51:49;;;;;;;32.38;18.25;;;;;;;15.11;70.56;98563.88;10333995;28;19913;-49
2023/10/05 06:56:49;;;;;;;32.20;18.30;;;;;;;15.28;70.38;98560.31;10335172;28;20025;-49
2023/10/05 07:01:48;;;;;;;30.50;18.40;;;;;;;15.38;70.09;98559.34;10333712;28;20057;-51
2023/10/05 07:06:47;;;;;;;;;;;;;;;15.63;69.56;98552.19;10331164;28;20124;-50
2023/10/05 07:11:46;;;;;;;29.17;19.30;;;;;;;15.75;69.26;98549.44;10332886;28;19920;-51
2023/10/05 07:16:45;;;;;;;31.10;20.60;;;;;;;16.04;68.20;98541.34;10329228;28;20083;-51
2023/10/05 07:21:44;;;;;;;31.23;19.90;;;;;;;16.38;67.34;98555.81;10331561;28;20483;-51
2023/10/05 07:26:43;;;;;;;;;;;;;;;16.67;66.75;98555.47;10331738;28;20866;-49
2023/10/05 07:31:42;;;;;;;39.13;18.63;;;;;;;16.91;65.31;98554.28;10328891;28;20396;-51
2023/10/05 07:36:41;;;;;;;30.30;18.90;;;;;;;17.06;64.90;98548.00;10329849;28;20064;-50
2023/10/05 07:41:40;;;;;;;26.90;15.75;;;;;;;17.43;64.58;98550.06;10327799;28;20113;-49
2023/10/05 07:46:39;;;;;;;20.55;15.35;;;;;;;17.74;63.86;98550.41;10328698;28;20104;-51
2023/10/05 07:51:38;;;;;;;22.55;13.73;;;;;;;17.86;63.18;98533.59;10328709;28;20104;-52
2023/10/05 07:56:37;;;;;;;23.85;13.98;;;;;;;17.96;63.39;98537.78;10329121;28;20108;-52
2023/10/05 08:01:36;;;;;;;20.15;13.77;;;;;;;18.37;62.84;98533.53;10332643;28;20121;-52
2023/10/05 08:06:35;;;;;;;22.42;13.70;;;;;;;18.70;61.92;98531.13;10331062;28;20084;-52
2023/10/05 08:11:34;;;;;;;24.30;14.25;;;;;;;18.97;61.65;98525.28;10329329;28;20120;-50
2023/10/05 08:16:36;;;;;;;23.80;11.80;;;;;;;19.19;60.72;98520.38;10327308;28;20056;-52
2023/10/05 08:21:35;;;;;;;22.80;11.93;;;;;;;19.32;60.37;98509.53;10329228;28;20056;-52
2023/10/05 08:26:35;;;;;;;17.15;11.70;;;;;;;19.69;59.71;98506.88;10328228;28;20559;-52
2023/10/05 08:31:33;;;;;;;24.95;11.05;;;;;;;19.94;58.37;98500.97;10326956;28;20068;-52
2023/10/05 08:36:33;;;;;;;20.45;11.10;;;;;;;20.19;57.74;98494.13;10328346;28;20112;-53
2023/10/05 08:41:36;;;;;;;15.18;10.05;;;;;;;20.33;56.84;98495.50;10327544;28;20065;-52
2023/10/05 08:46:43;;;;;;;17.30;10.80;;;;;;;20.32;56.04;98484.09;10325613;28;20075;-52
2023/10/05 08:51:44;;;;;;;14.55;9.73;;;;;;;20.65;54.88;98498.09;10324658;28;20056;-52
2023/10/05 08:56:47;;;;;;;19.08;10.50;;;;;;;20.85;54.60;98464.97;10325950;28;20120;-53
2023/10/05 09:01:46;;;;;;;17.33;10.52;;;;;;;21.18;53.41;98478.03;10326186;28;20072;-52
2023/10/05 09:06:55;;;;;;;16.20;9.65;;;;;;;21.38;52.65;98472.94;10326626;28;20081;-53
2023/10/05 09:11:56;;;;;;;16.80;9.60;;;;;;;21.41;51.80;98450.91;10324542;28;20081;-53
2023/10/05 09:17:08;;;;;;;14.93;8.88;;;;;;;21.92;51.35;98472.00;10326534;28;20068;-53
2023/10/05 09:22:11;;;;;;;13.75;9.38;;;;;;;22.25;49.90;98468.19;10326011;28;20148;-52
2023/10/05 09:27:13;;;;;;;19.77;10.75;;;;;;;22.45;50.16;98470.13;10326601;28;20057;-53
2023/10/05 09:32:30;;;;;;;15.10;9.88;;;;;;;22.66;48.80;98455.19;10325353;28;20065;-53
2023/10/05 09:37:35;;;;;;;16.85;9.15;;;;;;;22.34;48.43;98460.81;10327331;28;20080;-53
2023/10/05 09:42:37;;;;;;;17.27;9.98;;;;;;;22.60;48.17;98446.59;10324034;28;20077;-51
2023/10/05 09:47:39;;;;;;;15.65;9.38;;;;;;;22.89;47.18;98444.59;10322360;28;20073;-53
2023/10/05 09:52:45;;;;;;;15.25;9.40;;;;;;;23.01;46.75;98428.22;10327464;28;20072;-52
2023/10/05 09:57:52;;;;;;;16.15;9.25;;;;;;;23.34;47.24;98416.31;10324506;28;20594;-52
2023/10/05 10:02:51;;;;;;;13.65;9.27;;;;;;;23.38;46.08;98412.59;10328144;28;20100;-53
2023/10/05 10:07:50;;;;;;;16.85;10.30;;;;;;;23.52;46.75;98399.66;10332917;28;20456;-52
2023/10/05 10:12:52;;;;;;;13.18;9.20;;;;;;;23.64;45.71;98393.81;10334260;28;20073;-52
2023/10/05 10:18:03;;;;;;;16.75;9.85;;;;;;;23.85;45.70;98399.09;10333920;28;20068;-52
2023/10/05 10:23:25;;;;;;;13.55;9.23;;;;;;;23.88;44.08;98396.31;10327897;28;20124;-53
2023/10/05 10:28:49;;;;;;;15.95;9.25;;;;;;;24.08;44.10;98386.59;10331018;28;20085;-53
2023/10/05 10:33:51;;;;;;;15.15;9.43;;;;;;;24.19;41.97;98373.72;10330001;28;20076;-53
2023/10/05 10:38:51;;;;;;;14.85;9.80;;;;;;;24.24;41.69;98366.44;10332557;28;20096;-52
2023/10/05 10:43:52;;;;;;;14.27;8.73;;;;;;;24.32;40.84;98353.66;10331757;28;20069;-53
2023/10/05 10:48:58;;;;;;;14.40;8.85;;;;;;;24.58;40.23;98343.59;10332741;28;20060;-52
2023/10/05 10:54:02;;;;;;;16.45;9.57;;;;;;;24.70;40.08;98332.38;10330740;28;20083;-53
2023/10/05 10:59:10;;;;;;;14.93;8.82;;;;;;;24.94;39.90;98332.97;10331569;28;20069;-53
2023/10/05 11:34:55;;;;;;;;;;;;;;;25.97;37.96;98281.56;10526425;27;20414;-51
2023/10/05 11:39:59;;;;;;;15.48;9.27;;;;;;;26.21;37.13;98271.41;10531273;28;19951;-49
2023/10/05 11:44:59;;;;;;;12.05;8.27;;;;;;;26.29;35.41;98264.69;10529222;28;20551;-51
2023/10/05 11:50:08;;;;;;;13.80;8.52;;;;;;;26.14;36.10;98271.72;10531266;28;20081;-51
2023/10/05 11:55:16;;;;;;;12.85;8.63;;;;;;;26.25;37.61;98259.63;10528713;28;20735;-50
2023/10/05 12:00:16;;;;;;;11.80;8.70;;;;;;;26.03;38.38;98263.47;10529517;28;20532;-50
2023/10/05 12:05:16;;;;;;;13.13;8.18;;;;;;;25.89;37.61;98240.31;10529952;28;20051;-49
2023/10/05 12:10:15;;;;;;;15.20;8.65;;;;;;;26.09;38.14;98230.34;10531953;28;20050;-50
2023/10/05 12:15:17;;;;;;;14.27;9.05;;;;;;;26.63;37.47;98256.56;10531429;28;20061;-51
2023/10/05 12:20:16;;;;;;;13.25;8.23;;;;;;;26.88;36.64;98246.19;10532535;28;20069;-50
2023/10/05 12:25:24;;;;;;;12.48;8.93;;;;;;;27.11;36.37;98231.50;10532989;28;20066;-50
2023/10/05 12:30:24;;;;;;;14.97;8.87;;;;;;;27.46;35.94;98235.63;10532955;28;20494;-52
2023/10/05 12:35:23;;;;;;;14.38;7.90;;;;;;;27.69;35.58;98237.72;10506924;27;20063;-50
2023/10/05 12:40:26;;;;;;;12.70;8.52;;;;;;;27.73;35.11;98230.38;10504772;28;20019;-49
2023/10/05 12:45:25;;;;;;;12.65;8.18;;;;;;;27.29;35.57;98234.84;10504910;28;20059;-51
2023/10/05 12:50:27;;;;;;;15.55;8.13;;;;;;;26.74;35.79;98238.16;10504165;28;20497;-52
2023/10/05 12:55:26;;;;;;;14.38;7.53;;;;;;;26.39;36.92;98240.22;10503563;28;20051;-49
2023/10/05 13:00:31;;;;;;;13.57;7.93;;;;;;;26.12;37.24;98231.03;10502070;28;20039;-49
2023/10/05 13:05:39;;;;;;;13.00;7.90;;;;;;;25.84;37.67;98221.09;10499271;28;20062;-51
2023/10/05 13:10:38;;;;;;;14.15;7.35;;;;;;;26.16;37.20;98232.59;10501156;28;20059;-51
2023/10/05 13:15:38;;;;;;;11.25;7.60;;;;;;;26.07;37.27;98214.47;10502631;28;20063;-50
2023/10/05 13:20:38;;;;;;;17.02;8.90;;;;;;;26.34;36.83;98221.84;10503361;28;20058;-51
2023/10/05 13:25:39;;;;;;;16.70;8.30;;;;;;;26.21;37.12;98218.19;10503130;28;20063;-52
2023/10/05 13:30:43;;;;;;;14.07;7.40;;;;;;;26.21;36.69;98218.19;10495966;28;20058;-49
2023/10/05 13:35:44;;;;;;;16.85;9.02;;;;;;;26.04;36.80;98172.13;10501047;28;20491;-50
2023/10/05 13:41:13;;;;;;;14.88;8.32;;;;;;;26.21;36.83;98212.88;10500458;28;20092;-52
2023/10/05 13:46:27;;;;;;;14.00;8.02;;;;;;;25.84;37.51;98218.44;10495442;28;20747;-52
2023/10/05 13:51:29;;;;;;;16.50;7.65;;;;;;;25.59;37.82;98218.06;10494415;28;20425;-52
2023/10/05 13:56:28;;;;;;;14.75;7.80;;;;;;;25.51;38.23;98221.13;10498494;28;20054;-51
2023/10/05 14:01:38;;;;;;;12.10;7.75;;;;;;;25.15;38.93;98224.78;10500778;28;20047;-49
2023/10/05 14:06:37;;;;;;;13.38;7.07;;;;;;;24.95;39.24;98230.31;10500169;27;20059;-47
2023/10/05 14:11:40;;;;;;;15.43;8.18;;;;;;;24.80;39.84;98223.94;10501428;28;20045;-48
2023/10/05 14:16:44;;;;;;;19.25;10.18;;;;;;;24.58;39.66;98200.31;10500282;27;20059;-47
2023/10/05 14:21:43;;;;;;;14.98;8.15;;;;;;;24.88;39.67;98220.00;10499028;27;20128;-47
2023/10/05 14:26:44;;;;;;;14.68;7.22;;;;;;;24.93;39.35;98217.09;10500516;28;20450;-51
2023/10/05 14:31:44;;;;;;;17.80;7.70;;;;;;;24.64;39.69;98224.75;10497939;28;20093;-49
2023/10/05 14:36:44;;;;;;;15.30;8.05;;;;;;;24.58;39.97;98233.00;10496114;28;20063;-51
2023/10/05 14:41:44;;;;;;;13.50;7.38;;;;;;;24.15;40.42;98203.28;10497026;28;20050;-49
2023/10/05 14:46:49;;;;;;;13.15;7.35;;;;;;;24.30;40.43;98222.91;10497351;28;20082;-50
2023/10/05 14:51:49;;;;;;;14.43;7.50;;;;;;;24.33;40.47;98222.75;10496679;28;20078;-49
2023/10/05 14:56:49;;;;;;;14.82;8.50;;;;;;;23.67;40.92;98153.50;10445944;28;20055;-49
2023/10/05 15:01:48;;;;;;;14.23;7.38;;;;;;;24.04;41.02;98222.34;10447508;28;20561;-49
2023/10/05 15:06:47;;;;;;;13.32;7.43;;;;;;;23.82;41.19;98205.78;10447434;28;20571;-52
2023/10/05 15:11:46;;;;;;;17.35;8.18;;;;;;;23.73;41.41;98225.63;10448370;28;20055;-49
2023/10/05 15:16:47;;;;;;;12.48;7.45;;;;;;;23.64;42.02;98228.69;10448173;28;20067;-49
2023/10/05 15:21:46;;;;;;;16.85;8.07;;;;;;;23.53;42.27;98226.53;10490213;28;20051;-48
2023/10/05 15:26:48;;;;;;;11.98;7.97;;;;;;;23.57;42.35;98225.47;10488709;28;20124;-48
2023/10/05 15:31:47;;;;;;;14.52;7.88;;;;;;;23.47;42.33;98226.81;10489938;28;20066;-50
2023/10/05 15:36:46;;;;;;;15.48;8.20;;;;;;;23.38;42.81;98227.22;10489746;28;20126;-48
2023/10/05 15:41:49;;;;;;;20.33;8.60;;;;;;;23.00;43.22;98182.16;10489585;28;20475;-53
2023/10/05 15:46:48;;;;;;;13.90;8.75;;;;;;;23.10;43.31;98227.59;10489515;28;20059;-51
2023/10/05 15:51:47;;;;;;;16.88;9.07;;;;;;;22.98;44.10;98224.53;10490437;28;20032;-51
2023/10/05 15:56:46;;;;;;;17.05;8.75;;;;;;;22.91;44.13;98222.25;10448110;28;20048;-48
2023/10/05 16:01:48;;;;;;;17.08;9.38;;;;;;;22.25;44.91;98143.00;10489229;28;20541;-50
2023/10/05 16:06:47;;;;;;;18.55;9.73;;;;;;;22.51;45.64;98221.28;10489789;28;20126;-48
2023/10/05 16:11:46;;;;;;;23.10;10.32;;;;;;;22.23;46.04;98229.47;10497273;28;20051;-49
2023/10/05 16:16:45;;;;;;;16.63;10.32;;;;;;;22.00;46.96;98240.97;10495378;27;20082;-48
2023/10/05 16:21:44;;;;;;;19.70;10.63;;;;;;;21.70;47.75;98243.84;10497640;28;20445;-48
2023/10/05 16:26:44;;;;;;;18.33;12.18;;;;;;;21.39;48.84;98249.44;10494946;28;20421;-49
2023/10/05 16:31:45;;;;;;;21.48;11.07;;;;;;;21.01;49.32;98236.66;10496629;28;20059;-51
2023/10/05 16:36:46;;;;;;;21.42;11.52;;;;;;;21.01;49.70;98268.31;10495600;28;20126;-48
2023/10/05 16:41:46;;;;;;;20.85;11.43;;;;;;;20.82;50.37;98280.41;10495682;28;20082;-48
2023/10/05 16:46:47;;;;;;;19.63;11.40;;;;;;;20.71;50.81;98292.19;10453215;28;20071;-49
2023/10/05 16:51:45;;;;;;;21.23;11.35;;;;;;;20.53;51.46;98287.53;10452180;28;20099;-54
2023/10/05 16:56:44;;;;;;;24.95;11.57;;;;;;;20.18;51.64;98249.94;10494147;28;20130;-51
2023/10/05 17:01:43;;;;;;;20.55;11.20;;;;;;;20.09;52.50;98258.16;10494944;28;20026;-51
2023/10/05 17:06:42;;;;;;;23.92;12.07;;;;;;;20.22;53.12;98304.28;10492970;28;20115;-49
2023/10/05 17:11:41;;;;;;;20.92;11.52;;;;;;;20.14;53.48;98311.59;10494660;28;20066;-51
2023/10/05 17:16:40;;;;;;;24.27;12.30;;;;;;;20.07;53.61;98305.63;10493052;28;20460;-49
2023/10/05 17:21:39;;;;;;;23.50;10.77;;;;;;;19.97;53.94;98305.94;10493907;28;20523;-50
2023/10/05 17:26:38;;;;;;;23.08;10.43;;;;;;;19.90;54.15;98317.59;10493469;28;20063;-49
2023/10/05 17:31:39;;;;;;;28.08;11.18;;;;;;;19.74;54.45;98302.22;10492049;27;20413;-49
2023/10/05 17:36:38;;;;;;;19.08;11.15;;;;;;;19.62;55.30;98306.06;10492766;28;20474;-51
2023/10/05 17:41:37;;;;;;;16.33;10.88;;;;;;;19.53;55.56;98313.34;10493162;28;20404;-49
2023/10/05 17:46:36;;;;;;;17.33;9.98;;;;;;;19.40;55.79;98312.84;10492302;28;20138;-50
2023/10/05 17:51:35;;;;;;;17.42;9.90;;;;;;;19.26;56.11;98302.69;10491427;27;20131;-51
2023/10/05 17:56:34;;;;;;;14.45;9.70;;;;;;;19.10;56.46;98311.88;10452874;28;20157;-50
2023/10/05 18:01:33;;;;;;;15.23;9.98;;;;;;;18.98;56.88;98316.56;10450412;28;20111;-51
2023/10/05 18:06:32;;;;;;;16.05;9.70;;;;;;;18.88;57.78;98309.81;10449330;28;20040;-50
2023/10/05 18:11:31;;;;;;;18.05;11.10;;;;;;;18.77;58.19;98315.34;10450384;28;20012;-51
2023/10/05 18:16:32;;;;;;;13.25;10.93;;;;;;;18.64;58.61;98318.28;10449534;28;20062;-52
2023/10/05 18:21:32;;;;;;;20.17;11.88;;;;;;;18.48;58.79;98308.16;10449122;28;20103;-48
2023/10/05 18:26:32;;;;;;;17.40;10.60;;;;;;;18.39;59.24;98318.88;10449428;28;20064;-50
2023/10/05 18:31:32;;;;;;;20.63;11.18;;;;;;;17.51;59.59;98179.03;10448727;28;20139;-51
2023/10/05 18:36:31;;;;;;;20.63;11.65;;;;;;;18.05;60.52;98275.00;10448809;28;20048;-52
2023/10/05 18:41:30;;;;;;;27.15;18.85;;;;;;;18.10;60.93;98307.25;10449527;28;20011;-49
2023/10/05 18:46:29;;;;;;;25.95;19.15;;;;;;;17.96;61.86;98297.09;10448074;28;20494;-51
2023/10/05 18:51:29;;;;;;;23.30;15.10;;;;;;;17.81;62.53;98301.81;10448581;28;20065;-49
2023/10/05 18:56:31;;;;;;;24.35;14.95;;;;;;;17.65;62.96;98316.97;10486851;28;20118;-49
2023/10/05 19:01:30;;;;;;;21.10;14.32;;;;;;;17.48;63.71;98299.81;10490239;28;20138;-49
2023/10/05 19:06:29;;;;;;;27.98;15.43;;;;;;;17.39;64.86;98315.72;10489720;28;20036;-48
2023/10/05 19:11:28;;;;;;;;;;;;;;;17.34;65.32;98318.44;10490652;28;20016;-48
2023/10/05 19:16:27;;;;;;;23.17;13.33;;;;;;;17.04;66.56;98293.66;10488938;28;20006;-49
2023/10/05 19:21:26;;;;;;;21.85;13.55;;;;;;;16.93;67.56;98317.47;10489355;28;20481;-49
2023/10/05 19:26:25;;;;;;;;;;;;;;;16.95;66.91;98316.56;10490177;28;20036;-49
2023/10/05 19:31:23;;;;;;;22.97;14.43;;;;;;;16.84;67.74;98312.38;10488478;28;19918;-51
2023/10/05 19:36:22;;;;;;;;;;;;;;;16.80;67.88;98315.91;10489577;28;20054;-49
2023/10/05 19:41:22;;;;;;;23.10;14.50;;;;;;;16.80;67.54;98310.66;10489633;28;19927;-51
2023/10/05 19:46:21;;;;;;;20.52;13.95;;;;;;;16.77;67.85;98300.22;10497006;28;20078;-49
2023/10/05 19:51:20;;;;;;;25.90;14.25;;;;;;;16.73;68.19;98306.41;10497998;28;20022;-50
2023/10/05 19:56:19;;;;;;;;;;;;;;;16.66;68.69;98300.41;10460598;28;20082;-49
2023/10/05 20:01:18;;;;;;;24.10;15.57;;;;;;;16.60;68.98;98291.78;10454682;28;19947;-48
2023/10/05 20:06:17;;;;;;;;;;;;;;;16.54;69.46;98291.91;10455491;28;20028;-48
2023/10/05 20:11:16;;;;;;;27.67;18.03;;;;;;;16.40;70.26;98282.50;10454947;28;20387;-50
2023/10/05 20:16:17;;;;;;;;;;;;;;;16.26;70.25;98281.84;10455032;28;20031;-51
2023/10/05 20:21:16;;;;;;;24.25;15.55;;;;;;;16.12;70.55;98274.19;10454159;28;19943;-51
2023/10/05 20:26:15;;;;;;;;;;;;;;;16.05;70.66;98280.41;10454738;28;20036;-49
2023/10/05 20:31:14;;;;;;;24.87;14.50;;;;;;;15.98;70.39;98276.16;10453701;28;20387;-47
2023/10/05 20:36:13;;;;;;;30.13;17.33;;;;;;;15.84;71.06;98277.22;10453500;28;20060;-50
2023/10/05 20:41:12;;;;;;;;;;;;;;;15.82;71.23;98292.06;10454040;28;20089;-48
2023/10/05 20:46:11;;;;;;;30.10;16.90;;;;;;;15.72;71.83;98302.66;10453322;28;19920;-51
2023/10/05 20:51:09;;;;;;;;;;;;;;;15.59;72.57;98292.31;10453408;28;20031;-49
2023/10/05 20:56:10;;;;;;;50.07;21.63;;;;;;;15.59;72.30;98289.72;10488847;28;20416;-48
2023/10/05 21:01:10;;;;;;;36.28;19.63;;;;;;;15.50;72.81;98292.44;10494315;28;20114;-46
2023/10/05 21:06:10;;;;;;;23.05;15.45;;;;;;;15.41;72.95;98301.28;10494065;28;20086;-49
2023/10/05 21:11:08;;;;;;;;;;;;;;;15.31;74.52;98304.00;10494690;28;20620;-47
2023/10/05 21:16:07;;;;;;;21.80;15.50;;;;;;;15.34;73.89;98306.56;10493766;28;19912;-47
2023/10/05 21:21:07;;;;;;;27.02;16.17;;;;;;;15.34;73.95;98304.84;10493252;28;20119;-50
2023/10/05 21:26:06;;;;;;;25.80;15.23;;;;;;;15.36;73.80;98304.81;10493876;28;20072;-50
2023/10/05 21:31:05;;;;;;;23.58;16.40;;;;;;;15.32;74.19;98288.31;10493206;28;20509;-51
2023/10/05 21:36:06;;;;;;;;;;;;;;;15.31;74.75;98299.63;10493727;28;20531;-51
2023/10/05 21:41:05;;;;;;;24.05;16.52;;;;;;;15.29;75.07;98297.91;10491504;28;19947;-49
2023/10/05 21:46:03;;;;;;;;;;;;;;;15.22;74.89;98300.63;10493911;28;20035;-50
2023/10/05 21:51:02;;;;;;;21.13;15.23;;;;;;;15.18;74.94;98287.59;10492667;28;19995;-48
2023/10/05 21:56:03;;;;;;;;;;;;;;;15.18;74.77;98304.16;10458969;28;20529;-49
2023/10/05 22:01:03;;;;;;;20.65;14.75;;;;;;;15.10;75.19;98305.97;10450640;28;19983;-50
2023/10/05 22:06:04;;;;;;;20.77;15.23;;;;;;;14.96;76.09;98297.41;10449148;28;20502;-49
2023/10/05 22:11:03;;;;;;;23.92;16.95;;;;;;;14.86;76.53;98290.53;10449462;28;20063;-50
2023/10/05 22:16:02;;;;;;;26.02;16.45;;;;;;;14.95;76.34;98303.53;10450191;28;20482;-50
2023/10/05 22:21:02;;;;;;;;;;;;;;;14.95;76.29;98311.34;10447912;28;20115;-49
2023/10/05 22:26:01;;;;;;;20.48;15.63;;;;;;;14.95;77.02;98312.22;10446096;28;19959;-52
2023/10/05 22:31:00;;;;;;;22.35;14.82;;;;;;;15.03;76.44;98314.75;10445824;28;20115;-48
2023/10/05 22:35:58;;;;;;;;;;;;;;;15.05;76.36;98323.44;10448216;28;20040;-52
2023/10/05 22:40:57;;;;;;;25.15;15.50;;;;;;;15.09;75.93;98317.31;10448745;28;19918;-48
2023/10/05 22:45:56;;;;;;;21.33;14.80;;;;;;;15.07;75.84;98308.63;10448940;28;20500;-49
2023/10/05 22:50:55;;;;;;;;;;;;;;;15.09;76.20;98291.16;10448601;28;20475;-48
2023/10/05 22:55:54;;;;;;;20.98;14.38;;;;;;;14.97;75.80;98280.84;10481538;28;19911;-49
2023/10/05 23:00:53;;;;;;;;;;;;;;;15.00;76.12;98301.72;10491113;28;20524;-48
2023/10/05 23:05:52;;;;;;;20.90;14.02;;;;;;;14.85;76.30;98287.06;10489613;28;20465;-50
2023/10/05 23:10:51;;;;;;;22.90;15.18;;;;;;;14.77;77.33;98296.72;10489494;28;20071;-52
2023/10/05 23:15:50;;;;;;;;;;;;;;;14.60;77.37;98296.84;10490168;28;20020;-51
2023/10/05 23:20:48;;;;;;;24.27;16.67;;;;;;;14.29;78.72;98312.75;10490101;28;20457;-51
2023/10/05 23:25:49;;;;;;;;;;;;;;;14.14;79.03;98310.22;10489706;28;20027;-48
2023/10/05 23:30:48;;;;;;;25.58;17.17;;;;;;;14.18;77.89;98304.97;10489268;28;20010;-49
2023/10/05 23:35:47;;;;;;;;;;;;;;;14.09;78.42;98314.59;10489315;28;20034;-50
2023/10/05 23:40:47;;;;;;;22.65;14.82;;;;;;;13.92;79.13;98315.56;10489058;28;19927;-51
2023/10/05 23:45:46;;;;;;;23.23;14.98;;;;;;;13.68;79.72;98313.06;10488942;28;20055;-51
2023/10/05 23:50:45;;;;;;;;;;;;;;;13.66;79.04;98301.81;10489086;28;20063;-48
2023/10/05 23:55:44;;;;;;;20.80;14.68;;;;;;;13.69;79.21;98307.00;10455606;28;19912;-51
